sensor_id;sensor_type;location;lat;lon;timestamp;P1;durP1;ratioP1;P2;durP2;ratioP2
53207;SDS011;39093;52.788;6.940;2024-03-02T00:00:20;4.30;;;3.08;;
53207;SDS011;39093;52.788;6.940;2024-03-02T00:02:49;6.35;;;3.22;;
53207;SDS011;39093;52.788;6.940;2024-03-02T00:07:57;3.55;;;2.67;;
53207;SDS011;39093;52.788;6.940;2024-03-02T00:10:34;6.88;;;3.60;;
53207;SDS011;39093;52.788;6.940;2024-03-02T00:13:07;4.20;;;3.33;;
53207;SDS011;39093;52.788;6.940;2024-03-02T00:15:41;4.13;;;3.10;;
53207;SDS011;39093;52.788;6.940;2024-03-02T00:20:45;4.70;;;3.40;;
53207;SDS011;39093;52.788;6.940;2024-03-02T00:23:14;5.53;;;3.75;;
53207;SDS011;39093;52.788;6.940;2024-03-02T00:25:44;4.32;;;3.53;;
53207;SDS011;39093;52.788;6.940;2024-03-02T00:30:54;5.53;;;3.47;;
53207;SDS011;39093;52.788;6.940;2024-03-02T00:33:29;5.03;;;4.00;;
53207;SDS011;39093;52.788;6.940;2024-03-02T00:35:58;5.43;;;3.70;;
53207;SDS011;39093;52.788;6.940;2024-03-02T00:38:27;4.88;;;3.80;;
53207;SDS011;39093;52.788;6.940;2024-03-02T00:40:54;4.80;;;3.50;;
53207;SDS011;39093;52.788;6.940;2024-03-02T00:46:13;4.85;;;3.90;;
53207;SDS011;39093;52.788;6.940;2024-03-02T00:48:47;5.20;;;3.75;;
53207;SDS011;39093;52.788;6.940;2024-03-02T00:51:21;8.32;;;4.38;;
53207;SDS011;39093;52.788;6.940;2024-03-02T00:53:50;6.35;;;4.00;;
53207;SDS011;39093;52.788;6.940;2024-03-02T00:56:19;4.93;;;3.35;;
53207;SDS011;39093;52.788;6.940;2024-03-02T00:58:46;5.72;;;4.20;;
53207;SDS011;39093;52.788;6.940;2024-03-02T01:01:13;5.13;;;4.10;;
53207;SDS011;39093;52.788;6.940;2024-03-02T01:03:40;5.20;;;3.45;;
53207;SDS011;39093;52.788;6.940;2024-03-02T01:06:08;5.13;;;3.30;;
53207;SDS011;39093;52.788;6.940;2024-03-02T01:08:35;5.03;;;3.67;;
53207;SDS011;39093;52.788;6.940;2024-03-02T01:11:03;4.13;;;3.72;;
53207;SDS011;39093;52.788;6.940;2024-03-02T01:13:30;6.13;;;3.60;;
53207;SDS011;39093;52.788;6.940;2024-03-02T01:15:58;4.25;;;3.60;;
53207;SDS011;39093;52.788;6.940;2024-03-02T01:18:25;5.43;;;3.65;;
53207;SDS011;39093;52.788;6.940;2024-03-02T01:20:52;4.43;;;3.28;;
53207;SDS011;39093;52.788;6.940;2024-03-02T01:23:24;6.13;;;3.47;;
53207;SDS011;39093;52.788;6.940;2024-03-02T01:25:52;6.03;;;3.63;;
53207;SDS011;39093;52.788;6.940;2024-03-02T01:28:19;6.68;;;3.40;;
53207;SDS011;39093;52.788;6.940;2024-03-02T01:30:47;4.05;;;3.13;;
53207;SDS011;39093;52.788;6.940;2024-03-02T01:33:16;6.10;;;3.45;;
53207;SDS011;39093;52.788;6.940;2024-03-02T01:35:44;4.50;;;3.30;;
53207;SDS011;39093;52.788;6.940;2024-03-02T01:38:11;6.28;;;3.67;;
53207;SDS011;39093;52.788;6.940;2024-03-02T01:40:38;4.20;;;3.03;;
53207;SDS011;39093;52.788;6.940;2024-03-02T01:43:05;5.47;;;3.53;;
53207;SDS011;39093;52.788;6.940;2024-03-02T01:45:33;4.38;;;3.05;;
53207;SDS011;39093;52.788;6.940;2024-03-02T01:48:01;3.80;;;2.70;;
53207;SDS011;39093;52.788;6.940;2024-03-02T01:50:31;4.28;;;3.40;;
53207;SDS011;39093;52.788;6.940;2024-03-02T01:52:58;5.43;;;2.75;;
53207;SDS011;39093;52.788;6.940;2024-03-02T01:55:26;4.18;;;2.97;;
53207;SDS011;39093;52.788;6.940;2024-03-02T01:57:56;4.75;;;3.25;;
53207;SDS011;39093;52.788;6.940;2024-03-02T02:00:24;5.18;;;3.13;;
53207;SDS011;39093;52.788;6.940;2024-03-02T02:02:53;4.13;;;2.50;;
53207;SDS011;39093;52.788;6.940;2024-03-02T02:05:21;4.95;;;3.15;;
53207;SDS011;39093;52.788;6.940;2024-03-02T02:07:49;4.32;;;2.60;;
53207;SDS011;39093;52.788;6.940;2024-03-02T02:10:16;4.35;;;3.05;;
53207;SDS011;39093;52.788;6.940;2024-03-02T02:12:43;4.70;;;2.90;;
53207;SDS011;39093;52.788;6.940;2024-03-02T02:15:29;6.03;;;3.08;;
53207;SDS011;39093;52.788;6.940;2024-03-02T02:17:58;5.38;;;2.92;;
53207;SDS011;39093;52.788;6.940;2024-03-02T02:20:26;4.07;;;2.83;;
53207;SDS011;39093;52.788;6.940;2024-03-02T02:22:57;5.32;;;3.03;;
53207;SDS011;39093;52.788;6.940;2024-03-02T02:25:28;3.80;;;3.10;;
53207;SDS011;39093;52.788;6.940;2024-03-02T02:27:56;3.90;;;2.72;;
53207;SDS011;39093;52.788;6.940;2024-03-02T02:30:28;4.00;;;2.50;;
53207;SDS011;39093;52.788;6.940;2024-03-02T02:32:57;3.95;;;2.88;;
53207;SDS011;39093;52.788;6.940;2024-03-02T02:35:24;5.97;;;2.80;;
53207;SDS011;39093;52.788;6.940;2024-03-02T02:37:52;3.10;;;2.50;;
53207;SDS011;39093;52.788;6.940;2024-03-02T02:40:20;6.32;;;2.65;;
53207;SDS011;39093;52.788;6.940;2024-03-02T02:42:47;3.95;;;2.95;;
53207;SDS011;39093;52.788;6.940;2024-03-02T02:45:15;6.30;;;3.03;;
53207;SDS011;39093;52.788;6.940;2024-03-02T02:47:42;3.03;;;2.72;;
53207;SDS011;39093;52.788;6.940;2024-03-02T02:50:10;5.57;;;3.05;;
53207;SDS011;39093;52.788;6.940;2024-03-02T02:52:39;4.22;;;2.75;;
53207;SDS011;39093;52.788;6.940;2024-03-02T02:55:08;3.53;;;2.33;;
53207;SDS011;39093;52.788;6.940;2024-03-02T02:57:40;5.22;;;3.00;;
53207;SDS011;39093;52.788;6.940;2024-03-02T03:02:42;4.68;;;3.03;;
53207;SDS011;39093;52.788;6.940;2024-03-02T03:05:11;3.63;;;2.38;;
53207;SDS011;39093;52.788;6.940;2024-03-02T03:07:39;4.40;;;2.90;;
53207;SDS011;39093;52.788;6.940;2024-03-02T03:10:07;2.67;;;2.42;;
53207;SDS011;39093;52.788;6.940;2024-03-02T03:12:35;3.60;;;2.58;;
53207;SDS011;39093;52.788;6.940;2024-03-02T03:15:02;4.72;;;2.38;;
53207;SDS011;39093;52.788;6.940;2024-03-02T03:17:31;5.80;;;2.63;;
53207;SDS011;39093;52.788;6.940;2024-03-02T03:19:58;3.50;;;2.30;;
53207;SDS011;39093;52.788;6.940;2024-03-02T03:22:25;2.83;;;2.15;;
53207;SDS011;39093;52.788;6.940;2024-03-02T03:24:52;5.97;;;2.30;;
53207;SDS011;39093;52.788;6.940;2024-03-02T03:27:20;3.42;;;2.47;;
53207;SDS011;39093;52.788;6.940;2024-03-02T03:29:47;4.85;;;2.65;;
53207;SDS011;39093;52.788;6.940;2024-03-02T03:32:14;3.72;;;2.17;;
53207;SDS011;39093;52.788;6.940;2024-03-02T03:34:41;4.03;;;2.45;;
53207;SDS011;39093;52.788;6.940;2024-03-02T03:37:08;7.70;;;2.80;;
53207;SDS011;39093;52.788;6.940;2024-03-02T03:39:35;2.55;;;2.22;;
53207;SDS011;39093;52.788;6.940;2024-03-02T03:42:03;6.07;;;2.60;;
53207;SDS011;39093;52.788;6.940;2024-03-02T03:44:30;6.90;;;3.08;;
53207;SDS011;39093;52.788;6.940;2024-03-02T03:46:57;4.38;;;2.55;;
53207;SDS011;39093;52.788;6.940;2024-03-02T03:49:24;5.32;;;2.65;;
53207;SDS011;39093;52.788;6.940;2024-03-02T03:51:51;7.47;;;2.95;;
53207;SDS011;39093;52.788;6.940;2024-03-02T03:54:18;5.97;;;2.45;;
53207;SDS011;39093;52.788;6.940;2024-03-02T03:56:45;3.97;;;2.78;;
53207;SDS011;39093;52.788;6.940;2024-03-02T03:59:12;3.95;;;2.92;;
53207;SDS011;39093;52.788;6.940;2024-03-02T04:01:39;4.20;;;3.45;;
53207;SDS011;39093;52.788;6.940;2024-03-02T04:04:06;4.00;;;2.60;;
53207;SDS011;39093;52.788;6.940;2024-03-02T04:06:33;4.65;;;2.30;;
53207;SDS011;39093;52.788;6.940;2024-03-02T04:09:00;4.20;;;2.67;;
53207;SDS011;39093;52.788;6.940;2024-03-02T04:11:27;3.63;;;2.78;;
53207;SDS011;39093;52.788;6.940;2024-03-02T04:13:54;6.05;;;3.20;;
53207;SDS011;39093;52.788;6.940;2024-03-02T04:16:24;3.45;;;2.67;;
53207;SDS011;39093;52.788;6.940;2024-03-02T04:18:51;3.50;;;2.90;;
53207;SDS011;39093;52.788;6.940;2024-03-02T04:21:18;3.88;;;2.92;;
53207;SDS011;39093;52.788;6.940;2024-03-02T04:23:45;4.45;;;2.75;;
53207;SDS011;39093;52.788;6.940;2024-03-02T04:26:12;3.47;;;2.55;;
53207;SDS011;39093;52.788;6.940;2024-03-02T04:28:38;5.95;;;3.00;;
53207;SDS011;39093;52.788;6.940;2024-03-02T04:31:05;3.53;;;2.40;;
53207;SDS011;39093;52.788;6.940;2024-03-02T04:33:32;4.05;;;2.70;;
53207;SDS011;39093;52.788;6.940;2024-03-02T04:35:59;7.53;;;3.08;;
53207;SDS011;39093;52.788;6.940;2024-03-02T04:38:26;5.00;;;3.10;;
53207;SDS011;39093;52.788;6.940;2024-03-02T04:40:53;4.72;;;2.95;;
53207;SDS011;39093;52.788;6.940;2024-03-02T04:43:20;4.82;;;2.35;;
53207;SDS011;39093;52.788;6.940;2024-03-02T04:45:47;4.15;;;3.08;;
53207;SDS011;39093;52.788;6.940;2024-03-02T04:48:14;4.07;;;2.67;;
53207;SDS011;39093;52.788;6.940;2024-03-02T04:50:41;5.05;;;3.17;;
53207;SDS011;39093;52.788;6.940;2024-03-02T04:53:09;5.10;;;3.25;;
53207;SDS011;39093;52.788;6.940;2024-03-02T04:55:36;4.07;;;2.65;;
53207;SDS011;39093;52.788;6.940;2024-03-02T04:58:06;9.48;;;3.53;;
53207;SDS011;39093;52.788;6.940;2024-03-02T05:00:33;4.20;;;2.90;;
53207;SDS011;39093;52.788;6.940;2024-03-02T05:03:01;3.63;;;2.70;;
53207;SDS011;39093;52.788;6.940;2024-03-02T05:05:28;5.07;;;2.70;;
53207;SDS011;39093;52.788;6.940;2024-03-02T05:07:55;4.55;;;3.05;;
53207;SDS011;39093;52.788;6.940;2024-03-02T05:10:22;4.47;;;2.95;;
53207;SDS011;39093;52.788;6.940;2024-03-02T05:12:49;5.78;;;3.22;;
53207;SDS011;39093;52.788;6.940;2024-03-02T05:15:23;5.15;;;2.97;;
53207;SDS011;39093;52.788;6.940;2024-03-02T05:17:51;4.65;;;2.95;;
53207;SDS011;39093;52.788;6.940;2024-03-02T05:20:18;5.88;;;3.60;;
53207;SDS011;39093;52.788;6.940;2024-03-02T05:22:46;6.10;;;3.47;;
53207;SDS011;39093;52.788;6.940;2024-03-02T05:25:13;5.45;;;2.92;;
53207;SDS011;39093;52.788;6.940;2024-03-02T05:27:40;5.10;;;2.95;;
53207;SDS011;39093;52.788;6.940;2024-03-02T05:30:07;5.10;;;2.95;;
53207;SDS011;39093;52.788;6.940;2024-03-02T05:32:35;5.53;;;3.33;;
53207;SDS011;39093;52.788;6.940;2024-03-02T05:35:02;4.13;;;3.20;;
53207;SDS011;39093;52.788;6.940;2024-03-02T05:37:29;8.40;;;3.00;;
53207;SDS011;39093;52.788;6.940;2024-03-02T05:39:56;4.88;;;2.90;;
53207;SDS011;39093;52.788;6.940;2024-03-02T05:42:23;5.07;;;2.88;;
53207;SDS011;39093;52.788;6.940;2024-03-02T05:44:50;5.70;;;3.25;;
53207;SDS011;39093;52.788;6.940;2024-03-02T05:47:17;4.20;;;2.90;;
53207;SDS011;39093;52.788;6.940;2024-03-02T05:49:44;6.90;;;3.05;;
53207;SDS011;39093;52.788;6.940;2024-03-02T05:52:11;4.10;;;3.13;;
53207;SDS011;39093;52.788;6.940;2024-03-02T05:54:38;4.63;;;2.97;;
53207;SDS011;39093;52.788;6.940;2024-03-02T05:57:05;5.78;;;3.22;;
53207;SDS011;39093;52.788;6.940;2024-03-02T05:59:53;4.50;;;3.03;;
53207;SDS011;39093;52.788;6.940;2024-03-02T06:02:20;5.05;;;3.22;;
53207;SDS011;39093;52.788;6.940;2024-03-02T06:04:47;3.90;;;2.95;;
53207;SDS011;39093;52.788;6.940;2024-03-02T06:07:14;4.10;;;3.25;;
53207;SDS011;39093;52.788;6.940;2024-03-02T06:09:41;4.68;;;3.13;;
53207;SDS011;39093;52.788;6.940;2024-03-02T06:12:08;5.05;;;3.17;;
53207;SDS011;39093;52.788;6.940;2024-03-02T06:14:35;6.45;;;2.97;;
53207;SDS011;39093;52.788;6.940;2024-03-02T06:17:02;5.68;;;3.10;;
53207;SDS011;39093;52.788;6.940;2024-03-02T06:19:29;7.53;;;3.83;;
53207;SDS011;39093;52.788;6.940;2024-03-02T06:21:56;5.53;;;4.07;;
53207;SDS011;39093;52.788;6.940;2024-03-02T06:24:23;5.50;;;3.38;;
53207;SDS011;39093;52.788;6.940;2024-03-02T06:26:50;5.40;;;3.30;;
53207;SDS011;39093;52.788;6.940;2024-03-02T06:29:17;5.45;;;3.75;;
53207;SDS011;39093;52.788;6.940;2024-03-02T06:31:44;7.70;;;3.58;;
53207;SDS011;39093;52.788;6.940;2024-03-02T06:34:11;5.63;;;3.53;;
53207;SDS011;39093;52.788;6.940;2024-03-02T06:36:38;8.18;;;3.75;;
53207;SDS011;39093;52.788;6.940;2024-03-02T06:39:06;5.63;;;3.97;;
53207;SDS011;39093;52.788;6.940;2024-03-02T06:41:33;5.00;;;3.72;;
53207;SDS011;39093;52.788;6.940;2024-03-02T06:44:00;6.18;;;3.50;;
53207;SDS011;39093;52.788;6.940;2024-03-02T06:46:27;3.70;;;3.22;;
53207;SDS011;39093;52.788;6.940;2024-03-02T06:48:54;5.20;;;3.45;;
53207;SDS011;39093;52.788;6.940;2024-03-02T06:51:21;7.57;;;3.50;;
53207;SDS011;39093;52.788;6.940;2024-03-02T06:53:48;5.80;;;3.92;;
53207;SDS011;39093;52.788;6.940;2024-03-02T06:56:15;5.75;;;3.50;;
53207;SDS011;39093;52.788;6.940;2024-03-02T06:58:42;4.95;;;3.40;;
53207;SDS011;39093;52.788;6.940;2024-03-02T07:01:09;4.60;;;3.28;;
53207;SDS011;39093;52.788;6.940;2024-03-02T07:03:36;4.28;;;3.28;;
53207;SDS011;39093;52.788;6.940;2024-03-02T07:06:05;6.05;;;3.92;;
53207;SDS011;39093;52.788;6.940;2024-03-02T07:08:32;9.82;;;3.95;;
53207;SDS011;39093;52.788;6.940;2024-03-02T07:11:00;6.05;;;3.70;;
53207;SDS011;39093;52.788;6.940;2024-03-02T07:13:27;5.90;;;4.10;;
53207;SDS011;39093;52.788;6.940;2024-03-02T07:15:54;6.18;;;3.47;;
53207;SDS011;39093;52.788;6.940;2024-03-02T07:18:21;5.32;;;3.45;;
53207;SDS011;39093;52.788;6.940;2024-03-02T07:20:48;7.90;;;3.40;;
53207;SDS011;39093;52.788;6.940;2024-03-02T07:23:16;5.60;;;3.83;;
53207;SDS011;39093;52.788;6.940;2024-03-02T07:25:43;7.25;;;4.00;;
53207;SDS011;39093;52.788;6.940;2024-03-02T07:28:12;6.15;;;3.30;;
53207;SDS011;39093;52.788;6.940;2024-03-02T07:30:41;5.50;;;3.88;;
53207;SDS011;39093;52.788;6.940;2024-03-02T07:33:08;3.92;;;2.92;;
53207;SDS011;39093;52.788;6.940;2024-03-02T07:35:35;5.07;;;3.25;;
53207;SDS011;39093;52.788;6.940;2024-03-02T07:38:03;4.78;;;3.45;;
53207;SDS011;39093;52.788;6.940;2024-03-02T07:40:30;6.07;;;3.65;;
53207;SDS011;39093;52.788;6.940;2024-03-02T07:42:57;5.38;;;3.38;;
53207;SDS011;39093;52.788;6.940;2024-03-02T07:45:24;5.20;;;3.33;;
53207;SDS011;39093;52.788;6.940;2024-03-02T07:47:51;5.43;;;3.47;;
53207;SDS011;39093;52.788;6.940;2024-03-02T07:50:18;5.05;;;3.72;;
53207;SDS011;39093;52.788;6.940;2024-03-02T07:52:45;4.75;;;3.22;;
53207;SDS011;39093;52.788;6.940;2024-03-02T07:55:12;5.72;;;3.50;;
53207;SDS011;39093;52.788;6.940;2024-03-02T07:57:40;4.60;;;3.35;;
53207;SDS011;39093;52.788;6.940;2024-03-02T08:00:07;7.93;;;3.75;;
53207;SDS011;39093;52.788;6.940;2024-03-02T08:02:35;5.57;;;3.33;;
53207;SDS011;39093;52.788;6.940;2024-03-02T08:05:02;4.85;;;3.47;;
53207;SDS011;39093;52.788;6.940;2024-03-02T08:07:29;6.10;;;3.67;;
53207;SDS011;39093;52.788;6.940;2024-03-02T08:09:56;5.13;;;3.25;;
53207;SDS011;39093;52.788;6.940;2024-03-02T08:12:23;5.43;;;3.50;;
53207;SDS011;39093;52.788;6.940;2024-03-02T08:14:50;4.97;;;3.20;;
53207;SDS011;39093;52.788;6.940;2024-03-02T08:17:17;4.20;;;3.78;;
53207;SDS011;39093;52.788;6.940;2024-03-02T08:19:44;4.38;;;3.60;;
53207;SDS011;39093;52.788;6.940;2024-03-02T08:22:11;6.07;;;3.17;;
53207;SDS011;39093;52.788;6.940;2024-03-02T08:24:38;5.50;;;3.40;;
53207;SDS011;39093;52.788;6.940;2024-03-02T08:27:05;8.63;;;3.40;;
53207;SDS011;39093;52.788;6.940;2024-03-02T08:29:32;5.25;;;2.92;;
53207;SDS011;39093;52.788;6.940;2024-03-02T08:31:59;5.38;;;3.15;;
53207;SDS011;39093;52.788;6.940;2024-03-02T08:34:26;4.90;;;3.35;;
53207;SDS011;39093;52.788;6.940;2024-03-02T08:36:53;3.63;;;2.80;;
53207;SDS011;39093;52.788;6.940;2024-03-02T08:39:20;4.38;;;3.30;;
53207;SDS011;39093;52.788;6.940;2024-03-02T08:41:47;4.30;;;3.38;;
53207;SDS011;39093;52.788;6.940;2024-03-02T08:44:14;5.72;;;2.92;;
53207;SDS011;39093;52.788;6.940;2024-03-02T08:46:42;5.82;;;3.50;;
53207;SDS011;39093;52.788;6.940;2024-03-02T08:49:10;9.43;;;5.13;;
53207;SDS011;39093;52.788;6.940;2024-03-02T08:51:37;7.10;;;2.67;;
53207;SDS011;39093;52.788;6.940;2024-03-02T08:54:04;5.78;;;2.75;;
53207;SDS011;39093;52.788;6.940;2024-03-02T08:56:31;5.25;;;2.63;;
53207;SDS011;39093;52.788;6.940;2024-03-02T08:58:58;4.75;;;3.22;;
53207;SDS011;39093;52.788;6.940;2024-03-02T09:01:25;5.95;;;2.70;;
53207;SDS011;39093;52.788;6.940;2024-03-02T09:03:52;4.15;;;2.80;;
53207;SDS011;39093;52.788;6.940;2024-03-02T09:06:19;3.92;;;2.55;;
53207;SDS011;39093;52.788;6.940;2024-03-02T09:08:47;5.45;;;2.42;;
53207;SDS011;39093;52.788;6.940;2024-03-02T09:11:15;3.47;;;2.35;;
53207;SDS011;39093;52.788;6.940;2024-03-02T09:13:42;12.13;;;3.33;;
53207;SDS011;39093;52.788;6.940;2024-03-02T09:16:10;3.40;;;2.58;;
53207;SDS011;39093;52.788;6.940;2024-03-02T09:18:37;4.32;;;2.33;;
53207;SDS011;39093;52.788;6.940;2024-03-02T09:21:04;3.55;;;2.03;;
53207;SDS011;39093;52.788;6.940;2024-03-02T09:23:32;3.42;;;2.10;;
53207;SDS011;39093;52.788;6.940;2024-03-02T09:25:59;3.10;;;1.88;;
53207;SDS011;39093;52.788;6.940;2024-03-02T09:28:26;3.17;;;2.10;;
53207;SDS011;39093;52.788;6.940;2024-03-02T09:30:53;5.53;;;2.67;;
53207;SDS011;39093;52.788;6.940;2024-03-02T09:33:22;5.20;;;3.38;;
53207;SDS011;39093;52.788;6.940;2024-03-02T09:35:49;5.03;;;2.50;;
53207;SDS011;39093;52.788;6.940;2024-03-02T09:38:19;3.90;;;2.42;;
53207;SDS011;39093;52.788;6.940;2024-03-02T09:40:46;8.25;;;2.22;;
53207;SDS011;39093;52.788;6.940;2024-03-02T09:43:13;4.20;;;2.80;;
53207;SDS011;39093;52.788;6.940;2024-03-02T09:45:40;6.07;;;2.50;;
53207;SDS011;39093;52.788;6.940;2024-03-02T09:48:07;7.80;;;3.80;;
53207;SDS011;39093;52.788;6.940;2024-03-02T09:50:34;3.08;;;2.38;;
53207;SDS011;39093;52.788;6.940;2024-03-02T09:53:01;4.88;;;2.40;;
53207;SDS011;39093;52.788;6.940;2024-03-02T09:55:29;4.68;;;2.60;;
53207;SDS011;39093;52.788;6.940;2024-03-02T09:57:55;7.43;;;2.90;;
53207;SDS011;39093;52.788;6.940;2024-03-02T10:00:22;6.10;;;2.47;;
53207;SDS011;39093;52.788;6.940;2024-03-02T10:02:49;3.38;;;2.33;;
53207;SDS011;39093;52.788;6.940;2024-03-02T10:05:23;4.43;;;2.33;;
53207;SDS011;39093;52.788;6.940;2024-03-02T10:08:02;4.78;;;2.30;;
53207;SDS011;39093;52.788;6.940;2024-03-02T10:10:40;5.03;;;2.08;;
53207;SDS011;39093;52.788;6.940;2024-03-02T10:13:10;3.47;;;2.30;;
53207;SDS011;39093;52.788;6.940;2024-03-02T10:15:39;4.25;;;2.28;;
53207;SDS011;39093;52.788;6.940;2024-03-02T10:18:11;2.85;;;1.77;;
53207;SDS011;39093;52.788;6.940;2024-03-02T10:20:39;8.57;;;2.45;;
53207;SDS011;39093;52.788;6.940;2024-03-02T10:23:14;4.05;;;1.77;;
53207;SDS011;39093;52.788;6.940;2024-03-02T10:25:43;4.35;;;3.03;;
53207;SDS011;39093;52.788;6.940;2024-03-02T10:28:23;4.68;;;3.08;;
53207;SDS011;39093;52.788;6.940;2024-03-02T10:30:50;3.45;;;1.75;;
53207;SDS011;39093;52.788;6.940;2024-03-02T10:33:19;5.68;;;1.95;;
53207;SDS011;39093;52.788;6.940;2024-03-02T10:35:47;4.90;;;2.22;;
53207;SDS011;39093;52.788;6.940;2024-03-02T10:38:18;4.70;;;2.05;;
53207;SDS011;39093;52.788;6.940;2024-03-02T10:40:48;2.72;;;1.83;;
53207;SDS011;39093;52.788;6.940;2024-03-02T10:43:15;4.43;;;2.13;;
53207;SDS011;39093;52.788;6.940;2024-03-02T10:45:43;3.20;;;2.10;;
53207;SDS011;39093;52.788;6.940;2024-03-02T10:48:12;3.03;;;2.05;;
53207;SDS011;39093;52.788;6.940;2024-03-02T10:50:39;4.88;;;2.50;;
53207;SDS011;39093;52.788;6.940;2024-03-02T10:53:06;3.90;;;2.08;;
53207;SDS011;39093;52.788;6.940;2024-03-02T10:55:33;6.78;;;2.67;;
53207;SDS011;39093;52.788;6.940;2024-03-02T10:58:01;7.05;;;2.13;;
53207;SDS011;39093;52.788;6.940;2024-03-02T11:00:33;3.50;;;1.67;;
53207;SDS011;39093;52.788;6.940;2024-03-02T11:03:04;4.30;;;2.63;;
53207;SDS011;39093;52.788;6.940;2024-03-02T11:05:33;4.60;;;1.83;;
53207;SDS011;39093;52.788;6.940;2024-03-02T11:08:07;6.47;;;2.63;;
53207;SDS011;39093;52.788;6.940;2024-03-02T11:10:54;3.40;;;1.60;;
53207;SDS011;39093;52.788;6.940;2024-03-02T11:13:27;7.20;;;1.85;;
53207;SDS011;39093;52.788;6.940;2024-03-02T11:16:05;3.17;;;1.40;;
53207;SDS011;39093;52.788;6.940;2024-03-02T11:18:39;3.22;;;1.40;;
53207;SDS011;39093;52.788;6.940;2024-03-02T11:21:07;4.30;;;1.75;;
53207;SDS011;39093;52.788;6.940;2024-03-02T11:23:34;4.72;;;2.03;;
53207;SDS011;39093;52.788;6.940;2024-03-02T11:29:04;5.47;;;1.83;;
53207;SDS011;39093;52.788;6.940;2024-03-02T11:34:30;3.05;;;1.70;;
53207;SDS011;39093;52.788;6.940;2024-03-02T11:36:58;4.25;;;1.60;;
53207;SDS011;39093;52.788;6.940;2024-03-02T11:39:26;3.88;;;1.70;;
53207;SDS011;39093;52.788;6.940;2024-03-02T11:41:54;3.83;;;1.58;;
53207;SDS011;39093;52.788;6.940;2024-03-02T11:44:22;3.25;;;1.45;;
53207;SDS011;39093;52.788;6.940;2024-03-02T11:47:06;2.53;;;1.60;;
53207;SDS011;39093;52.788;6.940;2024-03-02T11:49:50;6.60;;;2.03;;
53207;SDS011;39093;52.788;6.940;2024-03-02T11:52:21;2.10;;;1.30;;
53207;SDS011;39093;52.788;6.940;2024-03-02T11:54:49;5.82;;;1.77;;
53207;SDS011;39093;52.788;6.940;2024-03-02T11:57:18;4.05;;;1.60;;
53207;SDS011;39093;52.788;6.940;2024-03-02T11:59:47;5.63;;;1.85;;
53207;SDS011;39093;52.788;6.940;2024-03-02T12:02:16;3.92;;;1.27;;
53207;SDS011;39093;52.788;6.940;2024-03-02T12:04:45;2.00;;;1.38;;
53207;SDS011;39093;52.788;6.940;2024-03-02T12:07:21;1.90;;;1.02;;
53207;SDS011;39093;52.788;6.940;2024-03-02T12:09:59;3.75;;;1.50;;
53207;SDS011;39093;52.788;6.940;2024-03-02T12:12:30;2.95;;;1.20;;
53207;SDS011;39093;52.788;6.940;2024-03-02T12:14:57;4.38;;;1.50;;
53207;SDS011;39093;52.788;6.940;2024-03-02T12:17:26;4.13;;;1.60;;
53207;SDS011;39093;52.788;6.940;2024-03-02T12:19:53;2.60;;;1.27;;
53207;SDS011;39093;52.788;6.940;2024-03-02T12:22:21;3.05;;;1.30;;
53207;SDS011;39093;52.788;6.940;2024-03-02T12:24:47;2.63;;;1.30;;
53207;SDS011;39093;52.788;6.940;2024-03-02T12:27:15;3.05;;;1.50;;
53207;SDS011;39093;52.788;6.940;2024-03-02T12:29:42;3.08;;;1.20;;
53207;SDS011;39093;52.788;6.940;2024-03-02T12:32:09;2.08;;;1.17;;
53207;SDS011;39093;52.788;6.940;2024-03-02T12:34:37;3.60;;;1.38;;
53207;SDS011;39093;52.788;6.940;2024-03-02T12:37:05;2.80;;;1.17;;
53207;SDS011;39093;52.788;6.940;2024-03-02T12:39:32;3.63;;;1.08;;
53207;SDS011;39093;52.788;6.940;2024-03-02T12:41:59;2.30;;;1.30;;
53207;SDS011;39093;52.788;6.940;2024-03-02T12:44:30;4.32;;;0.90;;
53207;SDS011;39093;52.788;6.940;2024-03-02T12:46:57;4.82;;;1.33;;
53207;SDS011;39093;52.788;6.940;2024-03-02T12:49:26;3.20;;;1.25;;
53207;SDS011;39093;52.788;6.940;2024-03-02T12:51:55;2.38;;;0.90;;
53207;SDS011;39093;52.788;6.940;2024-03-02T12:54:24;1.45;;;0.70;;
53207;SDS011;39093;52.788;6.940;2024-03-02T12:56:53;1.63;;;0.73;;
53207;SDS011;39093;52.788;6.940;2024-03-02T12:59:21;2.40;;;1.00;;
53207;SDS011;39093;52.788;6.940;2024-03-02T13:01:53;2.03;;;0.85;;
53207;SDS011;39093;52.788;6.940;2024-03-02T13:04:24;2.00;;;0.90;;
53207;SDS011;39093;52.788;6.940;2024-03-02T13:06:52;2.47;;;1.10;;
53207;SDS011;39093;52.788;6.940;2024-03-02T13:09:20;3.33;;;0.95;;
53207;SDS011;39093;52.788;6.940;2024-03-02T13:11:47;4.03;;;1.35;;
53207;SDS011;39093;52.788;6.940;2024-03-02T13:14:14;1.40;;;0.82;;
53207;SDS011;39093;52.788;6.940;2024-03-02T13:16:41;2.28;;;1.00;;
53207;SDS011;39093;52.788;6.940;2024-03-02T13:19:13;1.97;;;1.10;;
53207;SDS011;39093;52.788;6.940;2024-03-02T13:21:41;2.10;;;0.77;;
53207;SDS011;39093;52.788;6.940;2024-03-02T13:24:08;1.13;;;0.88;;
53207;SDS011;39093;52.788;6.940;2024-03-02T13:26:35;1.48;;;0.70;;
53207;SDS011;39093;52.788;6.940;2024-03-02T13:29:02;2.40;;;1.00;;
53207;SDS011;39093;52.788;6.940;2024-03-02T13:31:29;2.15;;;1.15;;
53207;SDS011;39093;52.788;6.940;2024-03-02T13:33:56;1.48;;;0.88;;
53207;SDS011;39093;52.788;6.940;2024-03-02T13:36:23;1.75;;;1.02;;
53207;SDS011;39093;52.788;6.940;2024-03-02T13:38:51;2.88;;;1.25;;
53207;SDS011;39093;52.788;6.940;2024-03-02T13:41:18;2.47;;;1.05;;
53207;SDS011;39093;52.788;6.940;2024-03-02T13:43:46;2.67;;;1.23;;
53207;SDS011;39093;52.788;6.940;2024-03-02T13:46:16;1.83;;;1.00;;
53207;SDS011;39093;52.788;6.940;2024-03-02T13:48:43;1.63;;;1.20;;
53207;SDS011;39093;52.788;6.940;2024-03-02T13:51:10;1.73;;;1.00;;
53207;SDS011;39093;52.788;6.940;2024-03-02T13:53:37;2.40;;;1.27;;
53207;SDS011;39093;52.788;6.940;2024-03-02T13:56:04;3.63;;;0.93;;
53207;SDS011;39093;52.788;6.940;2024-03-02T13:58:31;1.88;;;1.13;;
53207;SDS011;39093;52.788;6.940;2024-03-02T14:00:58;2.25;;;1.10;;
53207;SDS011;39093;52.788;6.940;2024-03-02T14:03:26;1.98;;;1.00;;
53207;SDS011;39093;52.788;6.940;2024-03-02T14:05:56;4.00;;;1.30;;
53207;SDS011;39093;52.788;6.940;2024-03-02T14:08:24;5.55;;;1.23;;
53207;SDS011;39093;52.788;6.940;2024-03-02T14:10:51;4.40;;;1.70;;
53207;SDS011;39093;52.788;6.940;2024-03-02T14:13:18;2.97;;;1.48;;
53207;SDS011;39093;52.788;6.940;2024-03-02T14:15:44;2.58;;;1.38;;
53207;SDS011;39093;52.788;6.940;2024-03-02T14:18:12;2.63;;;1.42;;
53207;SDS011;39093;52.788;6.940;2024-03-02T14:20:39;3.97;;;1.70;;
53207;SDS011;39093;52.788;6.940;2024-03-02T14:23:08;4.15;;;1.98;;
53207;SDS011;39093;52.788;6.940;2024-03-02T14:25:36;2.75;;;1.50;;
53207;SDS011;39093;52.788;6.940;2024-03-02T14:28:04;3.65;;;2.10;;
53207;SDS011;39093;52.788;6.940;2024-03-02T14:30:33;6.60;;;3.70;;
53207;SDS011;39093;52.788;6.940;2024-03-02T14:33:00;3.35;;;1.83;;
53207;SDS011;39093;52.788;6.940;2024-03-02T14:35:27;3.25;;;1.90;;
53207;SDS011;39093;52.788;6.940;2024-03-02T14:37:55;2.60;;;1.77;;
53207;SDS011;39093;52.788;6.940;2024-03-02T14:40:23;3.08;;;1.95;;
53207;SDS011;39093;52.788;6.940;2024-03-02T14:42:53;3.72;;;1.88;;
53207;SDS011;39093;52.788;6.940;2024-03-02T14:45:20;4.05;;;2.28;;
53207;SDS011;39093;52.788;6.940;2024-03-02T14:47:47;2.53;;;1.45;;
53207;SDS011;39093;52.788;6.940;2024-03-02T14:50:14;4.75;;;1.70;;
53207;SDS011;39093;52.788;6.940;2024-03-02T14:52:44;2.88;;;1.58;;
53207;SDS011;39093;52.788;6.940;2024-03-02T14:55:11;3.67;;;1.95;;
53207;SDS011;39093;52.788;6.940;2024-03-02T14:57:38;3.30;;;1.60;;
53207;SDS011;39093;52.788;6.940;2024-03-02T15:00:06;5.05;;;1.63;;
53207;SDS011;39093;52.788;6.940;2024-03-02T15:02:34;3.35;;;1.40;;
53207;SDS011;39093;52.788;6.940;2024-03-02T15:05:01;6.40;;;1.40;;
53207;SDS011;39093;52.788;6.940;2024-03-02T15:07:29;2.20;;;1.65;;
53207;SDS011;39093;52.788;6.940;2024-03-02T15:09:55;4.07;;;1.30;;
53207;SDS011;39093;52.788;6.940;2024-03-02T15:12:23;2.42;;;1.33;;